Aviation Digital Data Service (ADDS)

Output produced by METARs form (2233 UTC 30 March 2017)
found at http://www.aviationweather.gov/adds/metars/
 
OTBD 302200Z 35006KT CAVOK 25/18 Q1013 NOSIG
TAF OTBD 301700Z 3018/3124 36005KT CAVOK 
     TEMPO 3020/3102 VRB02KT 
     BECMG 3106/3108 07010KT
       
OTBH 302158Z 35006KT 9000 HZ CLR 25/13 A2993 RMK AO2A SLP136 T02470129 $
TAF OTBH 301500Z 3015/3121 VRB06KT 8000 HZ FEW060 QNH2990INS TX32/3109Z TN19/3100Z